CheckWX is a tool to help pilots better visualize weather data.  It is not intended as a substitute for an official pre-flight weather briefing.

06:44:41 UTC

KGYI METAR
North Texas Regional / Perrin Field Airport
Sherman/Denison, Texas, USA
Current

30 mins ago

KGYI 210615Z AUTO 15016G21KT 10SM BKN028 BKN034 24/20 A2958 RMK AO2 T02430203
Observed
May-21 @ 06:15 UTC
Wind
  • 150° at 16 KTS
  • Gusting to 21 KTS
Visibility
10 SM
Flight Rules
MVFR
Cloud Levels
  • Broken at 2,800' AGL
  • Broken at 3,400' AGL
Temperature
24°C / 75°F
Dewpoint
20°C / 68°F
Humidity
78%
Altimeter
29.58" Hg
Pressure
1001.72 hPa
Previous

50 mins ago

KGYI 210555Z AUTO 15013G22KT 10SM SCT026 BKN034 24/20 A2959 RMK AO2 T02440204 10282 20244 402930183
Observed
May-21 @ 05:55 UTC
Wind
  • 150° at 13 KTS
  • Gusting to 22 KTS
Visibility
10 SM
Flight Rules
VFR
Cloud Levels
  • Scattered at 2,600' AGL
  • Broken at 3,400' AGL
Temperature
24°C / 75°F
Dewpoint
20°C / 68°F
Humidity
78%
Altimeter
29.59" Hg
Pressure
1002.02 hPa
Previous

1 hour ago

KGYI 210535Z AUTO 15013G18KT 10SM BKN030 25/21 A2961 RMK AO2 T02450205
Observed
May-21 @ 05:35 UTC
Wind
  • 150° at 13 KTS
  • Gusting to 18 KTS
Visibility
10 SM
Flight Rules
MVFR
Cloud Levels
  • Broken at 3,000' AGL
Temperature
25°C / 77°F
Dewpoint
21°C / 70°F
Humidity
79%
Altimeter
29.61" Hg
Pressure
1002.72 hPa